createdAt,value
2018-07-26T00:01:11.312Z,75.47
2018-07-26T00:03:43.474Z,74.79
2018-07-26T00:06:15.036Z,76.26
2018-07-26T00:08:47.869Z,76.23
2018-07-26T00:11:20.095Z,74.62
2018-07-26T00:13:51.864Z,76.14
2018-07-26T00:16:23.679Z,74.65
2018-07-26T00:18:55.494Z,75.72
2018-07-26T00:21:27.499Z,76.14
2018-07-26T00:23:59.566Z,74.25
2018-07-26T00:26:31.454Z,74.66
2018-07-26T00:29:03.332Z,75.67
2018-07-26T00:31:35.940Z,74.68
2018-07-26T00:34:07.915Z,74.59
2018-07-26T00:36:39.458Z,75.08
2018-07-26T00:39:12.762Z,76.18
2018-07-26T00:41:44.834Z,78.49
2018-07-26T00:44:16.451Z,78.03
2018-07-26T00:46:49.046Z,77.05
2018-07-26T00:49:20.776Z,75.81
2018-07-26T00:51:52.615Z,74.08
2018-07-26T00:54:24.493Z,73.29
2018-07-26T00:56:56.693Z,74.30
2018-07-26T00:59:28.824Z,75.63
2018-07-26T01:02:00.488Z,74.95
2018-07-26T01:04:32.354Z,73.82
2018-07-26T01:07:04.186Z,73.58
2018-07-26T01:09:37.195Z,74.74
2018-07-26T01:12:09.442Z,73.30
2018-07-26T01:14:41.272Z,73.48
2018-07-26T01:17:13.068Z,71.86
2018-07-26T01:19:44.895Z,71.41
2018-07-26T01:22:17.143Z,71.99
2018-07-26T01:24:49.048Z,71.80
2018-07-26T01:27:21.023Z,74.15
2018-07-26T01:29:52.959Z,73.00
2018-07-26T01:32:24.941Z,72.62
2018-07-26T01:34:56.800Z,72.89
2018-07-26T01:37:28.370Z,72.15
2018-07-26T01:40:00.060Z,72.49
2018-07-26T01:42:37.088Z,71.35
2018-07-26T01:45:09.059Z,71.82
2018-07-26T01:47:40.870Z,71.31
2018-07-26T01:50:12.732Z,72.24
2018-07-26T01:52:44.720Z,71.63
2018-07-26T01:55:16.636Z,72.48
2018-07-26T01:57:48.294Z,71.24
2018-07-26T02:00:20.044Z,71.90
2018-07-26T02:02:51.812Z,71.83
2018-07-26T02:05:23.637Z,71.30
2018-07-26T02:07:55.580Z,71.12
2018-07-26T02:10:27.902Z,71.12
2018-07-26T02:12:59.731Z,71.63
2018-07-26T02:15:31.591Z,71.95
2018-07-26T02:18:03.476Z,72.29
2018-07-26T02:20:35.321Z,71.07
2018-07-26T02:23:06.953Z,71.98
2018-07-26T02:25:39.019Z,71.35
2018-07-26T02:28:11.138Z,72.08
2018-07-26T02:30:42.847Z,72.17
2018-07-26T02:33:14.539Z,71.57
2018-07-26T02:35:46.586Z,71.92
2018-07-26T02:38:18.318Z,71.85
2018-07-26T02:40:50.233Z,72.38
2018-07-26T02:43:22.136Z,72.01
2018-07-26T02:45:53.971Z,72.17
2018-07-26T02:48:26.000Z,72.61
2018-07-26T02:50:58.000Z,72.02
2018-07-26T02:53:29.837Z,72.53
2018-07-26T02:56:01.855Z,71.02
2018-07-26T02:58:33.638Z,71.79
2018-07-26T03:01:05.325Z,70.96
2018-07-26T03:03:37.907Z,70.91
2018-07-26T03:06:09.594Z,70.49
2018-07-26T03:08:41.633Z,69.80
2018-07-26T03:11:13.594Z,69.56
2018-07-26T03:13:45.637Z,70.30
2018-07-26T03:16:17.279Z,70.13
2018-07-26T03:18:49.403Z,71.03
2018-07-26T03:21:21.004Z,70.76
2018-07-26T03:23:52.911Z,69.88
2018-07-26T03:27:28.465Z,70.61
2018-07-26T03:30:00.471Z,70.19
2018-07-26T03:32:32.368Z,70.05
2018-07-26T03:35:04.775Z,70.75
2018-07-26T03:37:36.620Z,70.64
2018-07-26T03:40:08.461Z,71.07
2018-07-26T03:42:40.380Z,70.90
2018-07-26T03:45:12.210Z,71.61
2018-07-26T03:47:43.644Z,71.67
2018-07-26T03:50:15.647Z,70.92
2018-07-26T03:52:47.336Z,71.57
2018-07-26T03:55:19.382Z,71.30
2018-07-26T03:57:51.237Z,70.19
2018-07-26T04:00:22.916Z,71.11
2018-07-26T04:02:54.736Z,70.56
2018-07-26T04:05:26.693Z,71.04
2018-07-26T04:07:58.271Z,71.11
2018-07-26T04:10:30.136Z,71.82
2018-07-26T04:13:02.358Z,72.21
2018-07-26T04:15:34.067Z,71.88
2018-07-26T04:18:07.568Z,71.96
2018-07-26T04:20:39.587Z,71.82
2018-07-26T04:23:11.490Z,72.78
2018-07-26T04:25:43.343Z,72.41
2018-07-26T04:28:15.239Z,72.33
2018-07-26T04:30:47.492Z,73.28
2018-07-26T04:33:19.005Z,73.49
2018-07-26T04:35:51.248Z,73.47
2018-07-26T04:38:22.996Z,73.82
2018-07-26T04:40:54.885Z,71.92
2018-07-26T04:43:26.802Z,71.20
2018-07-26T04:45:58.983Z,71.77
2018-07-26T04:48:30.855Z,72.53
2018-07-26T04:51:02.754Z,73.24
2018-07-26T04:53:34.560Z,72.76
2018-07-26T04:56:06.792Z,73.44
2018-07-26T04:58:38.269Z,74.26
2018-07-26T05:01:10.194Z,73.76
2018-07-26T05:03:42.023Z,74.60
2018-07-26T05:06:13.881Z,74.00
2018-07-26T05:08:45.841Z,73.82
2018-07-26T05:11:17.970Z,74.49
2018-07-26T05:13:50.203Z,73.86
2018-07-26T05:16:22.013Z,74.07
2018-07-26T05:18:53.913Z,74.02
2018-07-26T05:21:25.952Z,74.12
2018-07-26T05:23:58.460Z,71.12
2018-07-26T05:26:30.601Z,72.27
2018-07-26T05:29:02.867Z,73.59
2018-07-26T05:31:34.730Z,73.84
2018-07-26T05:34:06.799Z,72.65
2018-07-26T05:36:38.917Z,72.52
2018-07-26T05:39:12.952Z,71.77
2018-07-26T05:41:44.927Z,71.83
2018-07-26T05:44:16.817Z,71.15
2018-07-26T05:46:48.933Z,71.64
2018-07-26T05:49:20.952Z,72.21
2018-07-26T05:51:52.908Z,71.43
2018-07-26T05:54:24.949Z,72.31
2018-07-26T05:56:56.825Z,72.66
2018-07-26T05:59:28.672Z,71.78
2018-07-26T06:02:01.164Z,72.33
2018-07-26T06:04:33.352Z,72.52
2018-07-26T06:07:05.940Z,73.28
2018-07-26T06:09:38.120Z,74.07
2018-07-26T06:12:10.429Z,73.88
2018-07-26T06:14:42.321Z,72.79
2018-07-26T06:17:14.302Z,73.78
2018-07-26T06:19:46.370Z,73.99
2018-07-26T06:22:18.728Z,73.06
2018-07-26T06:24:50.771Z,74.19
2018-07-26T06:27:23.747Z,73.91
2018-07-26T06:29:56.171Z,72.80
2018-07-26T06:32:28.251Z,73.89
2018-07-26T06:35:00.134Z,74.28
2018-07-26T06:37:32.038Z,74.20
2018-07-26T06:40:03.935Z,75.20
2018-07-26T06:42:36.213Z,75.14
2018-07-26T06:45:09.282Z,74.79
2018-07-26T06:47:41.421Z,75.39
2018-07-26T06:50:13.976Z,75.99
2018-07-26T06:52:46.363Z,75.08
2018-07-26T06:55:19.472Z,74.51
2018-07-26T06:57:53.415Z,74.21
2018-07-26T07:00:26.047Z,73.87
2018-07-26T07:02:59.215Z,73.24
2018-07-26T07:05:32.026Z,73.79
2018-07-26T07:08:04.302Z,73.87
2018-07-26T07:10:36.553Z,73.64
2018-07-26T07:13:10.228Z,74.43
2018-07-26T07:15:42.847Z,74.29
2018-07-26T07:18:15.134Z,74.63
2018-07-26T07:20:48.102Z,74.50
2018-07-26T07:23:20.712Z,74.48
2018-07-26T07:25:52.557Z,75.02
2018-07-26T07:28:24.714Z,75.02
2018-07-26T07:30:56.811Z,76.04
2018-07-26T07:33:29.303Z,75.37
2018-07-26T07:36:01.322Z,75.79
2018-07-26T07:38:33.734Z,75.64
2018-07-26T07:41:06.238Z,75.83
2018-07-26T07:43:38.212Z,76.52
2018-07-26T07:46:10.233Z,75.77
2018-07-26T07:48:42.361Z,75.76
2018-07-26T07:51:15.788Z,75.75
2018-07-26T07:53:49.859Z,75.97
2018-07-26T07:56:22.408Z,76.10
2018-07-26T07:58:54.977Z,76.05
2018-07-26T08:01:27.425Z,76.09
2018-07-26T08:03:59.705Z,76.93
2018-07-26T08:06:31.959Z,76.80
2018-07-26T08:09:04.786Z,76.91
2018-07-26T08:11:36.900Z,77.17
2018-07-26T08:14:11.240Z,77.20
2018-07-26T08:16:42.987Z,76.57
2018-07-26T08:19:16.091Z,76.30
2018-07-26T08:21:47.955Z,76.46
2018-07-26T08:24:23.619Z,76.88
2018-07-26T08:26:55.715Z,77.27
2018-07-26T08:29:28.210Z,77.05
2018-07-26T08:32:00.475Z,77.18
2018-07-26T08:34:32.727Z,76.42
2018-07-26T08:37:05.876Z,76.28
2018-07-26T08:39:38.075Z,76.73
2018-07-26T08:42:10.006Z,76.32
2018-07-26T08:44:42.430Z,76.94
2018-07-26T08:47:14.497Z,77.08
2018-07-26T08:49:46.581Z,75.93
2018-07-26T08:52:18.852Z,76.78
2018-07-26T08:54:51.199Z,76.02
2018-07-26T08:57:23.396Z,76.21
2018-07-26T08:59:56.996Z,76.80
2018-07-26T09:02:30.430Z,76.43
2018-07-26T09:05:02.768Z,76.22
2018-07-26T09:07:35.804Z,76.13
2018-07-26T09:10:08.842Z,76.47
2018-07-26T09:12:41.005Z,77.02
2018-07-26T09:15:13.533Z,76.97
2018-07-26T09:17:46.016Z,75.89
2018-07-26T09:20:18.063Z,77.01
2018-07-26T09:22:50.462Z,77.13
2018-07-26T09:25:23.326Z,77.61
2018-07-26T09:27:55.716Z,77.56
2018-07-26T09:30:28.038Z,76.83
2018-07-26T09:33:00.631Z,76.86
2018-07-26T09:35:34.574Z,77.15
2018-07-26T09:38:07.633Z,76.90
2018-07-26T09:40:39.903Z,76.12
2018-07-26T09:43:13.125Z,76.65
2018-07-26T09:45:45.976Z,75.86
2018-07-26T09:48:18.656Z,76.17
2018-07-26T09:50:50.564Z,76.39
2018-07-26T09:53:23.347Z,75.87
2018-07-26T09:55:56.869Z,75.79
2018-07-26T09:58:30.138Z,76.24
2018-07-26T10:01:09.147Z,75.74
2018-07-26T10:03:44.113Z,76.53
2018-07-26T10:06:18.589Z,75.70
2018-07-26T10:08:53.006Z,75.69
2018-07-26T10:11:26.965Z,76.02
2018-07-26T10:14:00.173Z,76.24
2018-07-26T10:16:33.093Z,76.50
2018-07-26T10:19:05.923Z,75.88
2018-07-26T10:21:38.794Z,75.90
2018-07-26T10:24:11.428Z,76.04
2018-07-26T10:26:44.376Z,74.88
2018-07-26T10:29:17.450Z,75.82
2018-07-26T10:31:49.871Z,75.59
2018-07-26T10:34:22.020Z,77.05
2018-07-26T10:36:54.169Z,76.64
2018-07-26T10:39:26.571Z,75.68
2018-07-26T10:41:58.726Z,75.58
2018-07-26T10:44:31.031Z,75.43
2018-07-26T10:47:03.537Z,75.68
2018-07-26T10:49:36.004Z,75.80
2018-07-26T10:52:08.300Z,76.80
2018-07-26T10:54:40.547Z,76.90
2018-07-26T10:57:12.694Z,76.03
2018-07-26T10:59:44.596Z,76.79
2018-07-26T11:02:17.729Z,77.13
2018-07-26T11:04:49.811Z,77.32
2018-07-26T11:07:22.327Z,77.49
2018-07-26T11:09:55.261Z,76.91
2018-07-26T11:12:28.096Z,77.03
2018-07-26T11:15:21.690Z,77.76
2018-07-26T11:17:53.988Z,76.93
2018-07-26T11:20:26.598Z,77.07
2018-07-26T11:22:58.959Z,77.81
2018-07-26T11:25:31.628Z,77.32
2018-07-26T11:28:05.083Z,77.81
2018-07-26T11:30:37.443Z,77.48
2018-07-26T11:33:09.473Z,77.45
2018-07-26T11:35:41.481Z,77.39
2018-07-26T11:38:14.296Z,77.04
2018-07-26T11:40:46.665Z,77.12
2018-07-26T11:43:19.279Z,76.62
2018-07-26T11:45:51.718Z,76.77
2018-07-26T11:48:24.039Z,75.77
2018-07-26T11:50:56.711Z,76.12
2018-07-26T11:53:29.188Z,75.89
2018-07-26T11:56:01.274Z,75.91
2018-07-26T11:58:33.742Z,75.43
2018-07-26T12:01:06.196Z,75.04
2018-07-26T12:03:40.653Z,75.45
2018-07-26T12:06:13.045Z,74.46
2018-07-26T12:08:44.978Z,75.49
2018-07-26T12:11:17.637Z,75.66
2018-07-26T12:13:50.122Z,75.86
2018-07-26T12:16:22.391Z,76.03
2018-07-26T12:18:55.314Z,75.21
2018-07-26T12:21:28.377Z,75.12
2018-07-26T12:24:00.651Z,74.83
2018-07-26T12:26:33.409Z,74.89
2018-07-26T12:29:06.779Z,75.41
2018-07-26T12:31:39.350Z,75.45
2018-07-26T12:34:11.878Z,75.58
2018-07-26T12:36:43.916Z,75.21
2018-07-26T12:39:16.241Z,74.60
2018-07-26T12:41:49.616Z,76.08
2018-07-26T12:44:22.171Z,76.17
2018-07-26T12:46:54.670Z,75.40
2018-07-26T12:49:27.797Z,75.53
2018-07-26T12:51:59.983Z,73.48
2018-07-26T12:54:32.285Z,74.55
2018-07-26T12:57:04.828Z,75.64
2018-07-26T12:59:37.333Z,75.04
2018-07-26T13:02:10.076Z,75.17
2018-07-26T13:04:42.572Z,75.41
2018-07-26T13:07:15.111Z,75.03
2018-07-26T13:09:47.720Z,75.70
2018-07-26T13:12:20.388Z,74.63
2018-07-26T13:14:52.556Z,73.93
2018-07-26T13:17:25.540Z,75.24
2018-07-26T13:19:58.926Z,74.84
2018-07-26T13:22:31.274Z,75.05
2018-07-26T13:25:04.378Z,75.14
2018-07-26T13:27:36.621Z,74.65
2018-07-26T13:30:12.334Z,74.63
2018-07-26T13:32:45.127Z,74.50
2018-07-26T13:35:18.542Z,74.63
2018-07-26T13:37:51.101Z,75.37
2018-07-26T13:40:24.056Z,76.17
2018-07-26T13:42:57.261Z,75.81
2018-07-26T13:45:29.405Z,74.81
2018-07-26T13:48:01.543Z,75.72
2018-07-26T13:50:33.955Z,75.40
2018-07-26T13:53:07.459Z,75.21
2018-07-26T13:55:40.691Z,75.22
2018-07-26T13:58:13.004Z,74.49
2018-07-26T14:00:45.839Z,74.02
2018-07-26T14:03:19.648Z,74.69
2018-07-26T14:05:51.993Z,73.80
2018-07-26T14:08:25.772Z,74.32
2018-07-26T14:10:57.838Z,74.47
2018-07-26T14:13:30.512Z,74.31
2018-07-26T14:16:03.291Z,74.61
2018-07-26T14:18:38.178Z,74.60
2018-07-26T14:21:11.291Z,73.42
2018-07-26T14:23:46.152Z,71.76
2018-07-26T14:26:20.365Z,73.25
2018-07-26T14:28:52.806Z,73.99
2018-07-26T14:31:25.236Z,74.43
2018-07-26T14:33:57.400Z,74.68
2018-07-26T14:36:29.895Z,74.07
2018-07-26T14:39:03.104Z,74.05
2018-07-26T14:41:35.493Z,74.40
2018-07-26T14:44:09.184Z,75.12
2018-07-26T14:46:41.463Z,74.47
2018-07-26T14:49:13.701Z,74.63
2018-07-26T14:51:47.175Z,75.05
2018-07-26T14:54:19.515Z,75.38
2018-07-26T14:56:51.902Z,75.43
2018-07-26T14:59:26.522Z,74.54
2018-07-26T15:01:59.098Z,74.95
2018-07-26T15:04:31.258Z,74.47
2018-07-26T15:07:03.812Z,75.05
2018-07-26T15:09:36.579Z,74.40
2018-07-26T15:12:09.035Z,75.33
2018-07-26T15:14:41.079Z,75.10
2018-07-26T15:17:13.416Z,75.54
2018-07-26T15:19:47.684Z,74.45
2018-07-26T15:22:20.095Z,74.99
2018-07-26T15:24:52.325Z,75.36
2018-07-26T15:27:24.815Z,75.11
2018-07-26T15:29:57.860Z,74.56
2018-07-26T15:32:30.156Z,74.20
2018-07-26T15:35:02.644Z,75.30
2018-07-26T15:37:34.721Z,74.72
2018-07-26T15:40:07.230Z,75.31
2018-07-26T15:42:39.310Z,66.84
2018-07-26T15:45:12.375Z,71.21
2018-07-26T15:47:44.611Z,73.26
2018-07-26T15:50:17.470Z,72.60
2018-07-26T15:52:50.026Z,72.79
2018-07-26T15:55:22.183Z,72.61
2018-07-26T15:57:55.647Z,72.95
2018-07-26T16:00:28.256Z,73.85
2018-07-26T16:03:01.674Z,73.14
2018-07-26T16:12:35.345Z,73.90
2018-07-26T16:15:09.151Z,73.42
2018-07-26T16:17:41.618Z,73.76
2018-07-26T16:20:15.869Z,72.86
2018-07-26T16:22:48.360Z,72.62
2018-07-26T16:25:26.063Z,73.58
2018-07-26T16:27:58.219Z,72.88
2018-07-26T16:30:31.375Z,73.13
2018-07-26T16:33:03.577Z,73.05
2018-07-26T16:35:37.035Z,72.30
2018-07-26T16:38:10.111Z,73.03
2018-07-26T16:40:43.276Z,72.59
2018-07-26T16:43:15.946Z,72.33
2018-07-26T16:45:48.905Z,72.74
2018-07-26T16:48:21.820Z,72.16
2018-07-26T16:50:55.305Z,72.88
2018-07-26T16:53:27.997Z,71.62
2018-07-26T16:55:59.981Z,72.42
2018-07-26T16:58:33.683Z,71.57
2018-07-26T17:01:06.784Z,71.85
2018-07-26T17:03:40.181Z,72.46
2018-07-26T17:06:14.070Z,72.50
2018-07-26T17:08:47.460Z,71.89
2018-07-26T17:11:19.786Z,71.93
2018-07-26T17:13:51.895Z,72.58
2018-07-26T17:16:24.172Z,72.05
2018-07-26T17:18:56.603Z,71.69
2018-07-26T17:21:28.750Z,70.03
2018-07-26T17:24:03.368Z,70.88
2018-07-26T17:26:35.967Z,72.08
2018-07-26T17:29:08.328Z,71.92
2018-07-26T17:31:41.135Z,71.98
2018-07-26T17:34:13.458Z,71.26
2018-07-26T17:36:46.266Z,71.81
2018-07-26T17:39:18.400Z,72.03
2018-07-26T17:41:50.364Z,71.69
2018-07-26T17:46:48.635Z,70.92
2018-07-26T17:49:22.078Z,72.15
2018-07-26T17:51:55.064Z,71.92
2018-07-26T17:54:27.691Z,71.46
2018-07-26T17:57:00.019Z,72.32
2018-07-26T17:59:32.765Z,72.61
2018-07-26T18:02:05.484Z,71.85
2018-07-26T18:04:39.729Z,72.54
2018-07-26T18:07:12.989Z,71.96
2018-07-26T18:09:45.887Z,72.22
2018-07-26T18:12:18.154Z,72.44
2018-07-26T18:14:51.320Z,72.64
2018-07-26T18:17:23.915Z,72.57
2018-07-26T18:19:56.956Z,72.50
2018-07-26T18:22:29.598Z,72.52
2018-07-26T18:25:03.167Z,71.60
2018-07-26T18:27:36.890Z,72.29
2018-07-26T18:30:09.826Z,72.21
2018-07-26T18:32:42.919Z,72.25
2018-07-26T18:35:16.733Z,72.23
2018-07-26T18:37:49.407Z,71.55
2018-07-26T18:40:22.194Z,71.67
2018-07-26T18:42:55.277Z,72.60
2018-07-26T18:45:27.533Z,72.68
2018-07-26T18:48:00.565Z,72.73
2018-07-26T18:50:33.156Z,71.88
2018-07-26T18:53:05.339Z,71.61
2018-07-26T18:55:37.856Z,72.67
2018-07-26T18:58:10.288Z,72.01
2018-07-26T19:00:43.696Z,71.93
2018-07-26T19:03:16.034Z,72.07
2018-07-26T19:05:48.178Z,71.94
2018-07-26T19:08:20.078Z,73.18
2018-07-26T19:10:52.581Z,72.44
2018-07-26T19:13:25.637Z,73.08
2018-07-26T19:15:57.933Z,72.28
2018-07-26T19:18:30.497Z,72.48
2018-07-26T19:21:02.659Z,73.49
2018-07-26T19:23:34.568Z,72.98
2018-07-26T19:26:07.083Z,72.53
2018-07-26T19:28:39.650Z,72.92
2018-07-26T19:31:11.960Z,73.08
2018-07-26T19:33:44.272Z,73.64
2018-07-26T19:36:16.611Z,73.88
2018-07-26T19:38:48.834Z,73.27
2018-07-26T19:41:21.432Z,73.67
2018-07-26T19:43:53.664Z,72.33
2018-07-26T19:46:25.985Z,71.77
2018-07-26T19:48:58.017Z,72.83
2018-07-26T19:51:30.115Z,72.91
2018-07-26T19:54:02.440Z,72.48
2018-07-26T19:56:35.838Z,72.77
2018-07-26T19:59:08.012Z,73.92
2018-07-26T20:01:40.574Z,73.52
2018-07-26T20:04:13.008Z,73.45
2018-07-26T20:06:45.207Z,73.33
2018-07-26T20:09:17.412Z,73.57
2018-07-26T20:11:49.888Z,73.34
2018-07-26T20:14:21.909Z,73.16
2018-07-26T20:16:54.211Z,74.15
2018-07-26T20:19:26.420Z,73.45
2018-07-26T20:21:58.693Z,73.62
2018-07-26T20:24:30.863Z,73.94
2018-07-26T20:27:03.098Z,74.13
2018-07-26T20:29:35.359Z,73.54
2018-07-26T20:32:07.137Z,73.93
2018-07-26T20:34:39.103Z,74.06
2018-07-26T20:37:11.501Z,74.19
2018-07-26T20:39:43.767Z,73.67
2018-07-26T20:42:16.409Z,73.97
2018-07-26T20:44:48.373Z,74.08
2018-07-26T20:47:20.429Z,73.70
2018-07-26T20:49:52.398Z,73.60
2018-07-26T20:52:24.590Z,73.54
2018-07-26T20:54:57.431Z,73.50
2018-07-26T20:57:29.448Z,73.62
2018-07-26T21:00:01.958Z,73.71
2018-07-26T21:02:34.148Z,73.51
2018-07-26T21:05:06.071Z,73.52
2018-07-26T21:07:37.882Z,73.57
2018-07-26T21:10:10.651Z,73.39
2018-07-26T21:12:42.650Z,73.99
2018-07-26T21:15:14.698Z,73.84
2018-07-26T21:17:46.501Z,73.88
2018-07-26T21:20:18.671Z,73.78
2018-07-26T21:22:51.036Z,73.64
2018-07-26T21:25:22.865Z,73.34
2018-07-26T21:27:55.027Z,74.35
2018-07-26T21:30:26.919Z,73.84
2018-07-26T21:32:58.586Z,73.31
2018-07-26T21:35:30.422Z,73.72
2018-07-26T21:38:02.507Z,73.45
2018-07-26T21:40:34.455Z,74.38
2018-07-26T21:43:06.461Z,74.29
2018-07-26T21:45:38.285Z,73.70
2018-07-26T21:48:09.941Z,74.61
2018-07-26T21:50:41.784Z,74.71
2018-07-26T21:53:13.648Z,74.28
2018-07-26T21:55:45.471Z,73.63
2018-07-26T21:58:17.281Z,73.65
2018-07-26T22:00:53.477Z,74.50
2018-07-26T22:03:25.588Z,74.57
2018-07-26T22:05:57.589Z,74.51
2018-07-26T22:08:29.346Z,74.78
2018-07-26T22:11:01.060Z,74.58
2018-07-26T22:13:33.072Z,74.55
2018-07-26T22:16:04.998Z,74.74
2018-07-26T22:18:36.804Z,74.74
2018-07-26T22:21:09.773Z,74.75
2018-07-26T22:23:41.419Z,74.55
2018-07-26T22:26:13.326Z,74.20
2018-07-26T22:28:45.030Z,74.80
2018-07-26T22:31:16.604Z,74.38
2018-07-26T22:33:48.311Z,74.98
2018-07-26T22:36:20.266Z,75.00
2018-07-26T22:38:52.853Z,74.75
2018-07-26T22:41:24.626Z,74.63
2018-07-26T22:43:56.308Z,75.22
2018-07-26T22:46:28.207Z,75.36
2018-07-26T22:48:59.846Z,74.54
2018-07-26T22:51:31.865Z,74.37
2018-07-26T22:54:04.896Z,74.83
2018-07-26T22:56:36.834Z,74.23
2018-07-26T22:59:08.603Z,74.41
2018-07-26T23:01:40.396Z,74.95
2018-07-26T23:04:12.268Z,74.94
2018-07-26T23:06:44.094Z,75.79
2018-07-26T23:09:15.735Z,75.34
2018-07-26T23:11:47.519Z,75.18
2018-07-26T23:14:19.245Z,75.12
2018-07-26T23:16:51.137Z,75.36
2018-07-26T23:19:22.843Z,75.14
2018-07-26T23:21:55.001Z,75.27
2018-07-26T23:24:26.761Z,75.19
2018-07-26T23:26:58.394Z,75.30
2018-07-26T23:29:30.442Z,75.78
2018-07-26T23:32:02.196Z,75.29
2018-07-26T23:34:33.975Z,76.11
2018-07-26T23:37:05.897Z,76.27
2018-07-26T23:39:37.573Z,75.02
2018-07-26T23:42:09.462Z,75.62
2018-07-26T23:44:41.237Z,75.65
2018-07-26T23:47:12.984Z,76.37
2018-07-26T23:49:44.724Z,75.95
2018-07-26T23:52:16.456Z,76.53
2018-07-26T23:54:48.102Z,76.35
2018-07-26T23:57:19.772Z,76.16
2018-07-26T23:59:51.360Z,76.33
